createdAt,value
2018-01-24T00:01:23.016Z,7.85
2018-01-24T00:03:51.681Z,9.10
2018-01-24T00:06:20.338Z,9.15
2018-01-24T00:08:49.020Z,7.78
2018-01-24T00:11:17.656Z,7.68
2018-01-24T00:13:46.312Z,7.87
2018-01-24T00:16:15.752Z,9.07
2018-01-24T00:18:44.409Z,7.60
2018-01-24T00:21:13.821Z,8.30
2018-01-24T00:23:42.526Z,8.10
2018-01-24T00:26:11.934Z,6.95
2018-01-24T00:28:40.576Z,8.40
2018-01-24T00:31:10.021Z,7.80
2018-01-24T00:33:38.669Z,7.97
2018-01-24T00:36:08.081Z,8.68
2018-01-24T00:38:37.634Z,9.43
2018-01-24T00:41:06.538Z,8.30
2018-01-24T00:43:35.237Z,7.53
2018-01-24T00:46:03.942Z,8.43
2018-01-24T00:48:33.357Z,8.07
2018-01-24T00:51:02.773Z,8.85
2018-01-24T00:53:31.495Z,8.80
2018-01-24T00:56:00.189Z,9.70
2018-01-24T00:58:28.860Z,10.73
2018-01-24T01:00:57.606Z,10.77
2018-01-24T01:03:27.129Z,8.70
2018-01-24T01:05:55.798Z,9.45
2018-01-24T01:08:25.242Z,10.88
2018-01-24T01:10:53.552Z,8.95
2018-01-24T01:13:22.205Z,11.23
2018-01-24T01:15:50.893Z,10.80
2018-01-24T01:18:19.537Z,10.95
2018-01-24T01:20:48.188Z,11.27
2018-01-24T01:23:16.893Z,9.93
2018-01-24T01:25:45.596Z,10.05
2018-01-24T01:28:15.077Z,10.88
2018-01-24T01:30:43.733Z,8.50
2018-01-24T01:33:12.457Z,8.82
2018-01-24T01:35:41.138Z,7.95
2018-01-24T01:38:09.818Z,7.18
2018-01-24T01:40:38.509Z,8.10
2018-01-24T01:43:07.264Z,9.80
2018-01-24T01:45:35.922Z,8.10
2018-01-24T01:48:05.353Z,8.50
2018-01-24T01:50:33.818Z,9.32
2018-01-24T01:53:02.288Z,8.35
2018-01-24T01:55:31.706Z,7.95
2018-01-24T01:58:00.637Z,8.05
2018-01-24T02:00:29.104Z,6.97
2018-01-24T02:02:57.943Z,7.47
2018-01-24T02:05:26.706Z,6.37
2018-01-24T02:07:55.206Z,6.37
2018-01-24T02:10:23.865Z,7.07
2018-01-24T02:12:52.701Z,6.20
2018-01-24T02:15:21.348Z,4.90
2018-01-24T02:17:50.005Z,5.18
2018-01-24T02:20:18.677Z,5.32
2018-01-24T02:22:47.324Z,4.85
2018-01-24T02:25:15.789Z,5.18
2018-01-24T02:27:44.114Z,4.75
2018-01-24T02:30:13.208Z,5.87
2018-01-24T02:32:42.613Z,5.20
2018-01-24T02:35:12.391Z,5.15
2018-01-24T02:37:40.883Z,4.75
2018-01-24T02:40:09.548Z,3.95
2018-01-24T02:42:38.242Z,3.87
2018-01-24T02:45:06.960Z,4.15
2018-01-24T02:47:36.370Z,4.60
2018-01-24T02:50:05.816Z,4.45
2018-01-24T02:52:34.692Z,4.18
2018-01-24T02:55:03.328Z,4.25
2018-01-24T02:57:32.006Z,4.65
2018-01-24T03:00:00.654Z,5.05
2018-01-24T03:02:29.346Z,4.93
2018-01-24T03:04:58.048Z,4.25
2018-01-24T03:07:26.745Z,4.60
2018-01-24T03:09:55.432Z,4.12
2018-01-24T03:12:24.089Z,4.50
2018-01-24T03:14:52.757Z,5.22
2018-01-24T03:17:22.157Z,3.97
2018-01-24T03:19:50.845Z,3.87
2018-01-24T03:22:19.539Z,3.78
2018-01-24T03:24:48.185Z,4.62
2018-01-24T03:27:16.832Z,5.37
2018-01-24T03:29:45.476Z,3.83
2018-01-24T03:32:14.901Z,5.05
2018-01-24T03:34:43.536Z,5.12
2018-01-24T03:37:12.208Z,5.65
2018-01-24T03:39:40.841Z,5.78
2018-01-24T03:42:10.253Z,4.93
2018-01-24T03:44:38.933Z,6.55
2018-01-24T03:47:07.586Z,5.80
2018-01-24T03:49:36.257Z,5.22
2018-01-24T03:52:04.970Z,6.70
2018-01-24T03:54:33.638Z,5.43
2018-01-24T03:57:02.339Z,8.30
2018-01-24T03:59:31.029Z,7.03
2018-01-24T04:01:59.697Z,7.78
2018-01-24T04:04:28.376Z,7.40
2018-01-24T04:06:57.037Z,8.00
2018-01-24T04:09:25.685Z,6.85
2018-01-24T04:11:54.410Z,6.35
2018-01-24T04:14:23.265Z,6.72
2018-01-24T04:16:52.402Z,6.53
2018-01-24T04:19:21.101Z,5.60
2018-01-24T04:21:49.748Z,6.55
2018-01-24T04:24:19.189Z,9.23
2018-01-24T04:26:47.844Z,6.57
2018-01-24T04:29:16.485Z,6.50
2018-01-24T04:31:45.160Z,6.22
2018-01-24T04:34:13.826Z,7.75
2018-01-24T04:36:42.467Z,6.57
2018-01-24T04:39:11.144Z,7.47
2018-01-24T04:41:39.784Z,8.68
2018-01-24T04:44:08.440Z,8.55
2018-01-24T04:46:37.885Z,7.37
2018-01-24T04:49:06.529Z,6.32
2018-01-24T04:51:35.760Z,8.57
2018-01-24T04:54:04.449Z,8.20
2018-01-24T04:56:33.117Z,7.22
2018-01-24T04:59:01.609Z,7.50
2018-01-24T05:01:29.770Z,7.12
2018-01-24T05:03:58.232Z,8.05
2018-01-24T05:06:27.653Z,8.20
2018-01-24T05:08:56.373Z,7.15
2018-01-24T05:11:24.833Z,8.23
2018-01-24T05:13:53.301Z,6.82
2018-01-24T05:16:22.563Z,8.10
2018-01-24T05:18:51.240Z,7.32
2018-01-24T05:21:19.721Z,6.32
2018-01-24T05:23:48.405Z,7.05
2018-01-24T05:26:17.061Z,8.90
2018-01-24T05:28:45.715Z,10.13
2018-01-24T05:31:15.161Z,10.13
2018-01-24T05:33:43.822Z,10.30
2018-01-24T05:36:12.472Z,8.15
2018-01-24T05:38:41.144Z,8.13
2018-01-24T05:41:09.804Z,8.50
2018-01-24T05:43:38.450Z,11.07
2018-01-24T05:46:07.896Z,10.90
2018-01-24T05:48:36.559Z,11.52
2018-01-24T05:51:05.208Z,9.45
2018-01-24T05:53:33.890Z,10.10
2018-01-24T05:56:02.541Z,11.05
2018-01-24T05:58:31.245Z,8.82
2018-01-24T06:01:00.033Z,11.60
2018-01-24T06:03:28.708Z,11.63
2018-01-24T06:05:57.393Z,11.68
2018-01-24T06:08:26.044Z,10.70
2018-01-24T06:10:55.461Z,11.95
2018-01-24T06:13:24.145Z,10.93
2018-01-24T06:15:52.809Z,10.55
2018-01-24T06:18:21.521Z,12.52
2018-01-24T06:20:50.334Z,11.98
2018-01-24T06:23:19.760Z,10.95
2018-01-24T06:25:48.416Z,12.25
2018-01-24T06:28:17.133Z,11.88
2018-01-24T06:30:45.797Z,11.35
2018-01-24T06:33:14.542Z,10.95
2018-01-24T06:35:43.905Z,9.45
2018-01-24T06:38:12.601Z,11.75
2018-01-24T06:40:41.315Z,11.73
2018-01-24T06:43:10.737Z,11.70
2018-01-24T06:45:40.420Z,12.95
2018-01-24T06:48:09.084Z,12.55
2018-01-24T06:50:37.749Z,11.57
2018-01-24T06:53:06.469Z,13.60
2018-01-24T06:55:34.796Z,11.85
2018-01-24T07:00:40.237Z,9.52
2018-01-24T07:03:09.657Z,11.15
2018-01-24T07:05:38.326Z,10.90
2018-01-24T07:08:07.187Z,9.70
2018-01-24T07:10:35.873Z,7.47
2018-01-24T07:13:15.787Z,8.18
2018-01-24T07:15:44.436Z,8.90
2018-01-24T07:18:13.909Z,9.82
2018-01-24T07:20:42.574Z,8.88
2018-01-24T07:23:11.229Z,7.53
2018-01-24T07:25:40.723Z,7.65
2018-01-24T07:28:10.199Z,8.77
2018-01-24T07:30:38.899Z,9.38
2018-01-24T07:33:07.817Z,8.00
2018-01-24T07:35:36.394Z,7.43
2018-01-24T07:38:05.746Z,7.85
2018-01-24T07:40:34.448Z,9.40
2018-01-24T07:43:03.146Z,7.53
2018-01-24T07:45:31.826Z,6.90
2018-01-24T07:48:00.535Z,6.95
2018-01-24T07:50:29.245Z,7.22
2018-01-24T07:52:58.430Z,6.30
2018-01-24T07:55:27.120Z,7.68
2018-01-24T07:57:55.842Z,6.62
2018-01-24T08:00:24.552Z,6.68
2018-01-24T08:02:53.260Z,7.93
2018-01-24T08:05:21.976Z,6.50
2018-01-24T08:07:50.697Z,7.62
2018-01-24T08:10:19.245Z,6.70
2018-01-24T08:12:48.713Z,6.80
2018-01-24T08:15:17.420Z,5.85
2018-01-24T08:17:46.103Z,5.93
2018-01-24T08:20:14.812Z,6.50
2018-01-24T08:22:43.523Z,6.97
2018-01-24T08:25:12.456Z,5.65
2018-01-24T08:27:41.149Z,5.57
2018-01-24T08:30:09.856Z,5.18
2018-01-24T08:32:39.353Z,6.07
2018-01-24T08:35:08.065Z,5.60
2018-01-24T08:37:36.765Z,5.55
2018-01-24T08:40:05.463Z,5.40
2018-01-24T08:42:34.167Z,5.10
2018-01-24T08:45:02.892Z,6.28
2018-01-24T08:47:31.613Z,5.65
2018-01-24T08:50:00.344Z,5.82
2018-01-24T08:52:29.062Z,6.50
2018-01-24T08:54:58.556Z,6.45
2018-01-24T08:57:27.292Z,7.03
2018-01-24T08:59:56.059Z,7.05
2018-01-24T09:02:24.775Z,5.40
2018-01-24T09:04:53.196Z,5.73
2018-01-24T09:07:25.156Z,5.00
2018-01-24T09:09:53.601Z,5.80
2018-01-24T09:12:22.019Z,6.13
2018-01-24T09:14:50.677Z,5.63
2018-01-24T09:17:19.116Z,5.63
2018-01-24T09:19:47.557Z,5.87
2018-01-24T09:22:16.775Z,5.30
2018-01-24T09:24:45.208Z,6.20
2018-01-24T09:27:13.636Z,5.77
2018-01-24T09:29:42.116Z,5.27
2018-01-24T09:32:10.553Z,6.00
2018-01-24T09:34:38.963Z,5.23
2018-01-24T09:37:08.191Z,4.80
2018-01-24T09:39:36.640Z,4.97
2018-01-24T09:42:05.858Z,4.67
2018-01-24T09:44:34.321Z,6.47
2018-01-24T09:47:03.516Z,4.87
2018-01-24T09:49:32.701Z,4.30
2018-01-24T09:52:01.143Z,4.80
2018-01-24T09:54:29.607Z,4.30
2018-01-24T09:56:58.924Z,5.10
2018-01-24T09:59:27.383Z,3.70
2018-01-24T10:01:55.800Z,4.70
2018-01-24T10:04:24.240Z,4.37
2018-01-24T10:06:52.712Z,4.63
2018-01-24T10:09:21.903Z,5.17
2018-01-24T10:11:51.116Z,3.53
2018-01-24T10:14:20.320Z,4.07
2018-01-24T10:16:48.732Z,3.97
2018-01-24T10:19:17.169Z,4.03
2018-01-24T10:21:45.808Z,3.60
2018-01-24T10:24:14.237Z,3.20
2018-01-24T10:26:43.473Z,3.53
2018-01-24T10:29:11.904Z,4.00
2018-01-24T10:31:41.109Z,3.70
2018-01-24T10:34:09.585Z,3.07
2018-01-24T10:36:38.788Z,2.60
2018-01-24T10:39:08.003Z,2.47
2018-01-24T10:41:36.467Z,2.60
2018-01-24T10:44:04.888Z,2.30
2018-01-24T10:46:33.319Z,2.43
2018-01-24T10:49:01.768Z,2.13
2018-01-24T10:51:30.247Z,2.43
2018-01-24T10:53:58.709Z,3.70
2018-01-24T10:56:27.330Z,2.63
2018-01-24T10:58:55.796Z,3.27
2018-01-24T11:01:24.225Z,4.10
2018-01-24T11:03:53.550Z,3.60
2018-01-24T11:06:22.742Z,4.27
2018-01-24T11:08:51.164Z,3.90
2018-01-24T11:11:19.579Z,3.80
2018-01-24T11:13:48.003Z,4.17
2018-01-24T11:16:16.424Z,3.60
2018-01-24T11:18:44.837Z,3.53
2018-01-24T11:21:13.269Z,3.00
2018-01-24T11:23:41.683Z,3.40
2018-01-24T11:26:10.121Z,2.87
2018-01-24T11:28:38.570Z,2.50
2018-01-24T11:31:06.991Z,3.07
2018-01-24T11:33:35.403Z,6.23
2018-01-24T11:36:03.855Z,5.30
2018-01-24T11:38:32.266Z,5.70
2018-01-24T11:41:01.449Z,7.57
2018-01-24T11:43:29.884Z,6.67
2018-01-24T11:45:58.426Z,6.00
2018-01-24T11:48:26.909Z,6.03
2018-01-24T11:50:55.030Z,6.10
2018-01-24T11:53:23.401Z,6.70
2018-01-24T11:55:51.790Z,6.50
2018-01-24T11:58:20.244Z,6.93
2018-01-24T12:00:48.641Z,6.23
2018-01-24T12:03:17.040Z,5.50
2018-01-24T12:05:45.447Z,6.40
2018-01-24T12:08:13.859Z,6.53
2018-01-24T12:10:43.029Z,5.60
2018-01-24T12:13:11.462Z,5.70
2018-01-24T12:15:39.860Z,5.70
2018-01-24T12:18:07.932Z,5.90
2018-01-24T12:20:36.371Z,4.70
2018-01-24T12:23:05.542Z,6.20
2018-01-24T12:25:33.960Z,5.23
2018-01-24T12:28:03.165Z,5.93
2018-01-24T12:30:32.317Z,4.70
2018-01-24T12:33:00.815Z,6.23
2018-01-24T12:35:29.224Z,4.70
2018-01-24T12:37:58.386Z,4.87
2018-01-24T12:40:26.793Z,5.20
2018-01-24T12:42:55.997Z,5.40
2018-01-24T12:45:25.181Z,5.20
2018-01-24T12:47:54.370Z,5.87
2018-01-24T12:50:22.781Z,5.00
2018-01-24T12:52:51.968Z,5.00
2018-01-24T12:55:21.177Z,5.03
2018-01-24T12:57:50.336Z,6.13
2018-01-24T13:00:18.744Z,5.53
2018-01-24T13:02:47.947Z,4.87
2018-01-24T13:05:17.136Z,6.27
2018-01-24T13:07:46.313Z,4.67
2018-01-24T13:10:14.758Z,5.00
2018-01-24T13:12:43.150Z,4.00
2018-01-24T13:15:11.565Z,4.53
2018-01-24T13:17:40.009Z,5.53
2018-01-24T13:20:08.087Z,5.40
2018-01-24T13:22:37.271Z,5.03
2018-01-24T13:25:05.726Z,4.17
2018-01-24T13:27:34.131Z,5.13
2018-01-24T13:30:02.530Z,4.37
2018-01-24T13:32:30.995Z,5.07
2018-01-24T13:34:59.271Z,6.30
2018-01-24T13:37:27.674Z,5.07
2018-01-24T13:39:56.111Z,5.33
2018-01-24T13:42:24.507Z,5.07
2018-01-24T13:44:52.919Z,4.70
2018-01-24T13:47:21.369Z,4.80
2018-01-24T13:49:49.786Z,5.20
2018-01-24T13:52:18.238Z,5.00
2018-01-24T13:54:47.626Z,5.27
2018-01-24T13:57:15.513Z,5.23
2018-01-24T13:59:43.901Z,4.33
2018-01-24T14:02:12.335Z,4.00
2018-01-24T14:04:41.510Z,6.10
2018-01-24T14:07:09.917Z,5.40
2018-01-24T14:09:39.153Z,5.10
2018-01-24T14:12:07.552Z,5.00
2018-01-24T14:14:35.761Z,5.43
2018-01-24T14:17:04.952Z,5.23
2018-01-24T14:19:33.356Z,5.30
2018-01-24T14:22:01.751Z,4.87
2018-01-24T14:24:30.342Z,4.60
2018-01-24T14:26:58.703Z,4.93
2018-01-24T14:29:27.098Z,5.90
2018-01-24T14:31:55.497Z,5.40
2018-01-24T14:34:23.909Z,6.00
2018-01-24T14:36:52.292Z,5.20
2018-01-24T14:39:20.689Z,5.77
2018-01-24T14:41:49.872Z,6.10
2018-01-24T14:44:18.261Z,6.30
2018-01-24T14:46:47.439Z,6.00
2018-01-24T14:49:15.900Z,6.13
2018-01-24T14:51:44.289Z,5.83
2018-01-24T14:54:12.676Z,5.30
2018-01-24T14:56:41.170Z,5.50
2018-01-24T14:59:09.844Z,6.70
2018-01-24T15:01:38.534Z,5.15
2018-01-24T15:04:07.199Z,6.28
2018-01-24T15:06:36.868Z,9.15
2018-01-24T15:09:04.937Z,5.90
2018-01-24T15:11:33.639Z,5.75
2018-01-24T15:14:02.304Z,6.30
2018-01-24T15:16:31.003Z,5.90
2018-01-24T15:18:59.917Z,5.65
2018-01-24T15:21:29.358Z,6.50
2018-01-24T15:23:58.089Z,7.10
2018-01-24T15:26:26.793Z,5.68
2018-01-24T15:28:55.605Z,5.85
2018-01-24T15:31:24.320Z,5.37
2018-01-24T15:33:52.974Z,7.15
2018-01-24T15:36:23.156Z,7.37
2018-01-24T15:38:51.567Z,5.68
2018-01-24T15:41:21.041Z,5.60
2018-01-24T15:43:49.737Z,5.62
2018-01-24T15:46:18.436Z,6.80
2018-01-24T15:48:46.927Z,6.65
2018-01-24T15:51:15.724Z,5.05
2018-01-24T15:53:45.149Z,6.82
2018-01-24T15:56:13.792Z,12.68
2018-01-24T15:58:42.460Z,18.20
2018-01-24T16:01:11.105Z,25.30
2018-01-24T16:03:39.767Z,28.67
2018-01-24T16:06:09.251Z,12.52
2018-01-24T16:08:37.581Z,8.35
2018-01-24T16:11:06.061Z,8.60
2018-01-24T16:13:34.720Z,6.65
2018-01-24T16:16:03.369Z,5.90
2018-01-24T16:18:32.061Z,6.37
2018-01-24T16:21:00.385Z,6.00
2018-01-24T16:23:29.149Z,5.65
2018-01-24T16:25:57.830Z,6.45
2018-01-24T16:28:26.500Z,6.10
2018-01-24T16:30:55.181Z,6.50
2018-01-24T16:33:23.914Z,11.15
2018-01-24T16:35:53.151Z,16.80
2018-01-24T16:38:21.805Z,28.90
2018-01-24T16:40:51.280Z,25.80
2018-01-24T16:43:19.948Z,21.85
2018-01-24T16:45:48.636Z,23.25
2018-01-24T16:48:17.305Z,23.02
2018-01-24T16:50:45.996Z,20.52
2018-01-24T16:53:14.652Z,15.65
2018-01-24T16:55:43.324Z,24.23
2018-01-24T16:58:12.790Z,12.25
2018-01-24T17:00:41.452Z,11.35
2018-01-24T17:03:10.099Z,9.13
2018-01-24T17:05:39.552Z,7.53
2018-01-24T17:08:08.208Z,8.82
2018-01-24T17:10:36.900Z,8.52
2018-01-24T17:13:05.545Z,11.68
2018-01-24T17:15:33.878Z,16.27
2018-01-24T17:18:02.562Z,12.73
2018-01-24T17:20:31.352Z,14.25
2018-01-24T17:23:00.003Z,19.05
2018-01-24T17:25:29.429Z,16.50
2018-01-24T17:27:58.088Z,13.65
2018-01-24T17:30:27.505Z,11.30
2018-01-24T17:32:56.960Z,8.32
2018-01-24T17:35:25.604Z,7.75
2018-01-24T17:37:54.259Z,11.02
2018-01-24T17:40:22.942Z,10.02
2018-01-24T17:42:51.261Z,12.88
2018-01-24T17:45:19.912Z,10.10
2018-01-24T17:47:48.597Z,10.35
2018-01-24T17:50:17.260Z,10.48
2018-01-24T17:52:45.909Z,9.85
2018-01-24T17:55:14.593Z,10.20
2018-01-24T17:57:43.253Z,10.25
2018-01-24T18:00:12.679Z,10.93
2018-01-24T18:02:42.132Z,15.00
2018-01-24T18:05:10.997Z,18.02
2018-01-24T18:07:39.657Z,16.00
2018-01-24T18:10:09.121Z,13.20
2018-01-24T18:12:37.777Z,11.27
2018-01-24T18:15:06.161Z,9.65
2018-01-24T18:17:35.164Z,10.05
2018-01-24T18:20:03.821Z,10.18
2018-01-24T18:22:32.482Z,10.07
2018-01-24T18:25:01.934Z,10.70
2018-01-24T18:27:33.494Z,11.80
2018-01-24T18:30:02.238Z,9.60
2018-01-24T18:32:30.936Z,10.85
2018-01-24T18:34:59.592Z,11.25
2018-01-24T18:37:28.258Z,11.88
2018-01-24T18:39:56.920Z,12.10
2018-01-24T18:42:25.609Z,11.52
2018-01-24T18:44:54.260Z,12.68
2018-01-24T18:47:23.676Z,14.20
2018-01-24T18:49:52.400Z,13.82
2018-01-24T18:52:21.070Z,14.10
2018-01-24T18:54:49.732Z,13.70
2018-01-24T18:57:18.412Z,13.25
2018-01-24T18:59:47.832Z,12.40
2018-01-24T19:02:16.491Z,9.30
2018-01-24T19:04:45.924Z,10.35
2018-01-24T19:07:14.628Z,11.12
2018-01-24T19:09:43.286Z,14.52
2018-01-24T19:12:11.999Z,13.45
2018-01-24T19:14:40.711Z,12.35
2018-01-24T19:17:09.367Z,11.77
2018-01-24T19:19:39.292Z,13.02
2018-01-24T19:22:07.986Z,11.45
2018-01-24T19:24:36.660Z,12.00
2018-01-24T19:27:05.322Z,11.70
2018-01-24T19:29:34.918Z,12.43
2018-01-24T19:32:04.333Z,10.82
2018-01-24T19:34:32.994Z,11.23
2018-01-24T19:37:01.744Z,9.00
2018-01-24T19:39:30.428Z,11.25
2018-01-24T19:41:59.100Z,10.45
2018-01-24T19:44:27.773Z,10.32
2018-01-24T19:46:56.489Z,9.00
2018-01-24T19:49:25.253Z,9.50
2018-01-24T19:51:53.968Z,10.23
2018-01-24T19:54:29.654Z,9.30
2018-01-24T19:56:58.329Z,7.32
2018-01-24T19:59:26.990Z,9.55
2018-01-24T20:01:55.690Z,8.00
2018-01-24T20:04:24.374Z,8.75
2018-01-24T20:06:53.082Z,8.88
2018-01-24T20:09:21.774Z,10.13
2018-01-24T20:11:50.428Z,7.57
2018-01-24T20:14:19.200Z,7.00
2018-01-24T20:16:50.317Z,7.32
2018-01-24T20:19:19.853Z,12.70
2018-01-24T20:21:48.533Z,29.25
2018-01-24T20:24:17.191Z,23.00
2018-01-24T20:26:45.865Z,17.20
2018-01-24T20:29:14.526Z,12.00
2018-01-24T20:31:43.253Z,13.43
2018-01-24T20:34:12.737Z,11.43
2018-01-24T20:36:41.384Z,8.90
2018-01-24T20:39:10.041Z,9.23
2018-01-24T20:41:39.471Z,8.80
2018-01-24T20:44:08.132Z,10.70
2018-01-24T20:46:36.803Z,10.10
2018-01-24T20:49:05.488Z,12.02
2018-01-24T20:51:34.146Z,9.05
2018-01-24T20:54:02.801Z,12.10
2018-01-24T20:56:31.485Z,11.20
2018-01-24T20:59:00.126Z,10.60
2018-01-24T21:01:28.772Z,9.38
2018-01-24T21:03:57.456Z,9.45
2018-01-24T21:06:26.112Z,9.10
2018-01-24T21:08:55.529Z,9.20
2018-01-24T21:11:24.189Z,7.30
2018-01-24T21:13:53.646Z,8.80
2018-01-24T21:16:22.334Z,7.95
2018-01-24T21:18:50.980Z,7.47
2018-01-24T21:21:19.630Z,7.97
2018-01-24T21:23:48.345Z,7.70
2018-01-24T21:26:17.757Z,8.52
2018-01-24T21:28:53.978Z,7.12
2018-01-24T21:34:50.945Z,6.32
2018-01-24T21:37:19.613Z,7.00
2018-01-24T21:39:48.285Z,8.30
2018-01-24T21:42:17.011Z,8.50
2018-01-24T21:44:45.870Z,10.00
2018-01-24T21:47:14.600Z,11.27
2018-01-24T21:49:43.318Z,11.50
2018-01-24T21:52:12.013Z,11.75
2018-01-24T21:54:40.702Z,12.32
2018-01-24T21:57:09.409Z,12.85
2018-01-24T21:59:38.106Z,11.40
2018-01-24T22:02:06.790Z,11.63
2018-01-24T22:04:35.512Z,11.60
2018-01-24T22:07:03.853Z,10.65
2018-01-24T22:09:32.509Z,9.10
2018-01-24T22:12:02.117Z,9.75
2018-01-24T22:14:31.617Z,9.23
2018-01-24T22:17:00.361Z,8.43
2018-01-24T22:19:29.059Z,7.95
2018-01-24T22:21:57.747Z,6.75
2018-01-24T22:24:26.461Z,5.60
2018-01-24T22:26:55.921Z,5.78
2018-01-24T22:29:24.622Z,5.97
2018-01-24T22:31:53.330Z,6.90
2018-01-24T22:34:22.757Z,7.25
2018-01-24T22:36:51.995Z,6.65
2018-01-24T22:39:20.534Z,6.72
2018-01-24T22:41:49.939Z,7.37
2018-01-24T22:44:19.221Z,7.53
2018-01-24T22:46:47.860Z,6.57
2018-01-24T22:49:16.558Z,6.90
2018-01-24T22:51:45.256Z,7.50
2018-01-24T22:54:14.232Z,7.37
2018-01-24T22:56:42.892Z,6.35
2018-01-24T22:59:11.624Z,7.25
2018-01-24T23:01:40.312Z,6.85
2018-01-24T23:04:09.000Z,5.75
2018-01-24T23:06:37.733Z,7.87
2018-01-24T23:09:06.427Z,6.35
2018-01-24T23:11:35.105Z,7.45
2018-01-24T23:14:04.546Z,6.10
2018-01-24T23:16:33.209Z,6.53
2018-01-24T23:19:01.871Z,7.00
2018-01-24T23:21:30.545Z,6.30
2018-01-24T23:23:59.294Z,7.28
2018-01-24T23:26:28.117Z,6.40
2018-01-24T23:28:56.839Z,7.10
2018-01-24T23:31:25.602Z,6.10
2018-01-24T23:33:54.279Z,5.50
2018-01-24T23:36:23.200Z,6.15
2018-01-24T23:38:52.104Z,7.90
2018-01-24T23:41:20.793Z,6.87
2018-01-24T23:43:49.488Z,6.78
2018-01-24T23:46:18.139Z,7.57
2018-01-24T23:48:46.797Z,8.25
2018-01-24T23:51:15.543Z,6.18
2018-01-24T23:53:44.441Z,7.50
2018-01-24T23:56:13.137Z,7.78
2018-01-24T23:58:41.895Z,7.00
